METAR AND TAF INFORMATION
METAR FOR CYVO
ADDS - METARS form results

(1135 UTC 23 May 2019)
Data provider http://aviationweather.gov/metar/data/
 
METAR text: CYVO 231100Z 14007KT 15SM -RA OVC047 09/05 A2994 RMK SC8 SLP150
Conditions at: CYVO (VAL D'OR AIRPORT, QC, CA) observed 1100 UTC 23 May 2019
Temperature: 9.0°C (48°F)
Dewpoint: 5.0°C (41°F) [RH = 76%]
Pressure (altimeter): 29.94 inches Hg (1014.0 mb)
[Sea-level pressure: 1015.0 mb]
Winds: from the SE (140 degrees) at 8 MPH (7 knots; 3.6 m/s)
Visibility: 15 miles (24 km)
Ceiling: 4700 feet AGL
Clouds: overcast cloud deck at 4700 feet AGL
Weather: -RA  (light rain)

METAR text: CYVO 231042Z 13009KT 15SM -RA OVC047 09/04 A2995 RMK SC8 PRESFR SLP151
Conditions at: CYVO (VAL D'OR AIRPORT, QC, CA) observed 1042 UTC 23 May 2019
Temperature: 9.0°C (48°F)
Dewpoint: 4.0°C (39°F) [RH = 71%]
Pressure (altimeter): 29.95 inches Hg (1014.3 mb)
[Sea-level pressure: 1015.1 mb]
Winds: from the SE (130 degrees) at 10 MPH (9 knots; 4.6 m/s)
Visibility: 15 miles (24 km)
Ceiling: 4700 feet AGL
Clouds: overcast cloud deck at 4700 feet AGL
Weather: -RA  (light rain)

Forecast for: AMD
Text: TAF AMD CYVO 230923Z 2309/2318 13005KT P6SM BKN050
Forecast period: 0900 to 1800 UTC 23 May 2019
Forecast type: FROM: standard forecast or significant change
Winds: from the SE (130 degrees) at 6 MPH (5 knots; 2.6 m/s)
Visibility: 6 or more miles 10+ km)
Ceiling: 5000 feet AGL
Clouds: broken clouds at 5000 feet AGL
Weather: no significant weather forecast for this period
Text: TEMPO 2309/2318 P6SM -SHRA RMK FCST BASED ON AUTO OBS. NXT FCST BY 231200Z
Forecast period: 0900 to 1800 UTC 23 May 2019
Forecast type: TEMPORARY: The following changes expected for less than half the time period
Visibility: 6 or more miles 10+ km)
Ceiling: unknown
Clouds: missing
Weather: -SHRA  (light rain showers)

AIRPORT MAP

RUNWAY INFORMATION
Runway 18 Runway length 10000 ft Runway width 150 ft
Runway elevation 1102 ft Runway displaced threshold 0 ft Runway heading 169
Runway 36 Runway length 10000 ft Runway width 150 ft
Runway elevation 1100 ft Runway displaced threshold 0 ft Runway heading 349

AIRPORT FREQUENCIES
Type MF Name Val-d'Or R Frequency 118.5 MHZ
Type PAL Name Montreal C Frequency 125.9 MHZ
Type RADIO Name Val-d'Or R Frequency 118.5 MHZ
Type RCO Name Quebec Rad Frequency 126.7 MHZ

AIRPORT NEAR NAVIGATION AIDS
Type NDB Name Val-d'Or Frequency 239 KHZ
Type VOR-DME Name Val-d'Or Frequency 113700 KHZ